createdAt,value
2018-06-25T00:00:54.987Z,99.90
2018-06-25T00:03:23.132Z,99.90
2018-06-25T00:05:51.189Z,99.90
2018-06-25T00:08:19.248Z,99.90
2018-06-25T00:10:53.391Z,99.90
2018-06-25T00:13:21.462Z,99.90
2018-06-25T00:15:49.562Z,99.90
2018-06-25T00:18:17.644Z,99.90
2018-06-25T00:20:45.681Z,99.90
2018-06-25T00:23:23.997Z,99.90
2018-06-25T00:25:52.060Z,99.90
2018-06-25T00:30:54.091Z,99.90
2018-06-25T00:33:22.124Z,99.90
2018-06-25T00:38:21.354Z,99.90
2018-06-25T00:40:49.405Z,99.90
2018-06-25T00:43:23.852Z,99.90
2018-06-25T00:45:51.950Z,99.90
2018-06-25T00:48:25.497Z,99.90
2018-06-25T00:50:53.674Z,99.90
2018-06-25T00:53:21.741Z,99.90
2018-06-25T00:55:49.812Z,99.90
2018-06-25T00:58:23.394Z,99.90
2018-06-25T01:00:54.677Z,99.90
2018-06-25T01:03:22.797Z,99.90
2018-06-25T01:05:50.877Z,99.90
2018-06-25T01:08:18.925Z,99.90
2018-06-25T01:22:18.766Z,99.90
2018-06-25T01:24:46.913Z,99.90
2018-06-25T01:27:15.029Z,99.90
2018-06-25T01:29:43.097Z,99.90
2018-06-25T01:32:11.201Z,99.90
2018-06-25T01:34:39.280Z,99.90
2018-06-25T01:37:13.845Z,99.90
2018-06-25T01:39:41.890Z,99.90
2018-06-25T01:42:09.934Z,99.90
2018-06-25T01:44:37.997Z,99.90
2018-06-25T01:47:13.725Z,99.90
2018-06-25T01:49:41.756Z,99.90
2018-06-25T01:52:09.812Z,99.90
2018-06-25T01:54:43.957Z,99.90
2018-06-25T01:57:12.004Z,99.90
2018-06-25T01:59:43.842Z,99.90
2018-06-25T02:02:11.893Z,99.90
2018-06-25T02:04:39.936Z,99.90
2018-06-25T02:07:08.049Z,99.90
2018-06-25T02:09:36.298Z,99.90
2018-06-25T02:14:41.876Z,99.90
2018-06-25T02:17:15.835Z,99.90
2018-06-25T02:19:53.849Z,99.90
2018-06-25T02:22:23.846Z,99.90
2018-06-25T02:24:55.025Z,99.90
2018-06-25T02:27:23.954Z,99.90
2018-06-25T02:29:51.994Z,99.90
2018-06-25T02:32:20.033Z,99.90
2018-06-25T02:34:48.104Z,99.90
2018-06-25T02:37:16.345Z,99.90
2018-06-25T02:39:44.451Z,99.90
2018-06-25T02:42:15.660Z,99.90
2018-06-25T02:44:44.391Z,99.90
2018-06-25T02:47:14.138Z,99.90
2018-06-25T02:49:42.473Z,99.90
2018-06-25T02:52:10.527Z,99.90
2018-06-25T02:54:38.806Z,99.90
2018-06-25T02:57:13.685Z,99.90
2018-06-25T02:59:41.733Z,99.90
2018-06-25T03:02:09.767Z,99.90
2018-06-25T03:04:44.040Z,99.90
2018-06-25T03:07:12.089Z,99.90
2018-06-25T03:09:43.866Z,99.90
2018-06-25T03:12:15.605Z,99.90
2018-06-25T03:14:44.652Z,99.90
2018-06-25T03:17:12.709Z,99.90
2018-06-25T03:19:44.093Z,99.90
2018-06-25T03:22:12.176Z,99.90
2018-06-25T03:24:40.269Z,99.90
2018-06-25T03:27:08.365Z,99.90
2018-06-25T03:29:43.885Z,99.90
2018-06-25T03:32:14.966Z,99.90
2018-06-25T03:34:44.052Z,99.90
2018-06-25T03:37:12.138Z,99.90
2018-06-25T03:39:40.245Z,99.90
2018-06-25T03:42:08.313Z,99.90
2018-06-25T03:44:44.172Z,99.90
2018-06-25T03:47:12.261Z,99.90
2018-06-25T03:49:40.361Z,99.90
2018-06-25T03:52:14.243Z,99.90
2018-06-25T03:54:42.344Z,99.90
2018-06-25T03:57:14.216Z,99.90
2018-06-25T03:59:42.296Z,99.90
2018-06-25T04:02:10.361Z,99.90
2018-06-25T04:04:38.452Z,99.90
2018-06-25T04:07:13.922Z,99.90
2018-06-25T04:09:42.015Z,99.90
2018-06-25T04:12:14.118Z,99.90
2018-06-25T04:14:44.082Z,99.90
2018-06-25T04:17:12.187Z,99.90
2018-06-25T04:19:40.281Z,99.90
2018-06-25T04:22:13.884Z,99.90
2018-06-25T04:24:45.146Z,99.90
2018-06-25T04:27:13.213Z,99.90
2018-06-25T04:29:41.289Z,99.90
2018-06-25T04:32:09.427Z,99.90
2018-06-25T04:34:43.618Z,99.90
2018-06-25T04:37:11.729Z,99.90
2018-06-25T04:39:46.019Z,99.90
2018-06-25T04:44:56.260Z,99.90
2018-06-25T04:47:34.048Z,99.90
2018-06-25T04:50:02.164Z,99.90
2018-06-25T04:52:30.242Z,99.90
2018-06-25T04:57:33.930Z,99.90
2018-06-25T05:00:04.165Z,99.90
2018-06-25T05:02:32.244Z,99.90
2018-06-25T05:07:28.293Z,99.90
2018-06-25T05:10:03.430Z,99.90
2018-06-25T05:12:35.409Z,99.90
2018-06-25T05:15:04.016Z,99.90
2018-06-25T05:17:32.109Z,99.90
2018-06-25T05:20:00.186Z,99.90
2018-06-25T05:22:28.283Z,99.90
2018-06-25T05:25:03.525Z,99.90
2018-06-25T05:27:31.586Z,99.90
2018-06-25T05:29:59.662Z,99.90
2018-06-25T05:32:27.802Z,99.90
2018-06-25T05:34:55.986Z,99.90
2018-06-25T05:37:24.044Z,99.90
2018-06-25T05:39:52.105Z,99.90
2018-06-25T05:42:21.778Z,99.90
2018-06-25T05:44:51.001Z,99.90
2018-06-25T05:47:22.277Z,99.90
2018-06-25T05:49:50.313Z,99.90
2018-06-25T05:52:23.984Z,99.90
2018-06-25T05:54:52.368Z,99.90
2018-06-25T05:57:20.466Z,99.90
2018-06-25T05:59:48.551Z,99.90
2018-06-25T06:02:24.910Z,99.90
2018-06-25T06:04:53.158Z,99.90
2018-06-25T06:07:21.521Z,99.90
2018-06-25T06:09:55.158Z,99.90
2018-06-25T06:12:24.643Z,99.90
2018-06-25T06:14:52.712Z,99.90
2018-06-25T06:19:52.512Z,99.90
2018-06-25T06:22:24.528Z,99.90
2018-06-25T06:24:52.658Z,99.90
2018-06-25T06:27:20.858Z,99.90
2018-06-25T06:29:48.996Z,99.90
2018-06-25T06:32:17.073Z,99.90
2018-06-25T06:34:45.165Z,99.90
2018-06-25T06:37:13.293Z,99.90
2018-06-25T06:39:44.960Z,99.90
2018-06-25T06:42:13.084Z,99.90
2018-06-25T06:44:41.179Z,99.90
2018-06-25T06:47:10.977Z,99.90
2018-06-25T06:49:40.991Z,99.90
2018-06-25T06:52:09.081Z,99.90
2018-06-25T06:54:37.191Z,99.90
2018-06-25T06:57:13.334Z,99.90
2018-06-25T06:59:41.435Z,99.90
2018-06-25T07:02:09.497Z,99.90
2018-06-25T07:04:37.607Z,99.90
2018-06-25T07:07:08.055Z,99.90
2018-06-25T07:09:36.143Z,99.90
2018-06-25T07:12:04.224Z,99.90
2018-06-25T07:14:32.350Z,99.90
2018-06-25T07:17:00.410Z,99.90
2018-06-25T07:19:28.500Z,99.90
2018-06-25T07:22:03.721Z,99.90
2018-06-25T07:24:32.952Z,99.90
2018-06-25T07:27:01.048Z,99.80
2018-06-25T07:29:34.953Z,99.50
2018-06-25T07:32:03.052Z,98.10
2018-06-25T07:34:34.765Z,96.70
2018-06-25T07:37:02.848Z,98.20
2018-06-25T07:39:34.102Z,96.80
2018-06-25T07:42:02.217Z,94.40
2018-06-25T07:44:35.873Z,94.40
2018-06-25T07:47:06.773Z,94.30
2018-06-25T07:49:34.841Z,93.50
2018-06-25T07:52:04.606Z,92.40
2018-06-25T07:54:45.084Z,93.00
2018-06-25T07:57:14.597Z,93.90
2018-06-25T07:59:42.677Z,92.80
2018-06-25T08:02:14.329Z,90.70
2018-06-25T08:04:44.161Z,89.20
2018-06-25T08:07:12.258Z,86.20
2018-06-25T08:09:40.327Z,87.80
2018-06-25T08:12:14.687Z,85.40
2018-06-25T08:14:42.781Z,88.30
2018-06-25T08:17:10.910Z,87.20
2018-06-25T08:19:44.866Z,89.20
2018-06-25T08:22:13.964Z,82.00
2018-06-25T08:24:42.432Z,85.00
2018-06-25T08:27:10.531Z,83.90
2018-06-25T08:29:38.753Z,83.40
2018-06-25T08:32:13.434Z,80.40
2018-06-25T08:34:41.486Z,83.50
2018-06-25T08:39:43.513Z,85.50
2018-06-25T08:42:11.620Z,85.00
2018-06-25T08:44:45.807Z,79.00
2018-06-25T08:47:13.958Z,70.30
2018-06-25T08:49:42.069Z,61.00
2018-06-25T08:52:15.876Z,57.50
2018-06-25T08:54:54.449Z,61.20
2018-06-25T08:57:22.544Z,62.50
2018-06-25T08:59:50.648Z,63.70
2018-06-25T09:02:24.353Z,64.40
2018-06-25T09:04:52.855Z,62.00
2018-06-25T09:07:23.210Z,63.30
2018-06-25T09:09:57.720Z,65.50
2018-06-25T09:12:34.153Z,66.90
2018-06-25T09:15:02.233Z,59.60
2018-06-25T09:17:30.389Z,63.60
2018-06-25T09:19:58.567Z,59.90
2018-06-25T09:22:33.454Z,57.00
2018-06-25T09:25:01.558Z,57.60
2018-06-25T09:27:33.993Z,61.60
2018-06-25T09:30:02.114Z,66.70
2018-06-25T09:32:30.246Z,64.90
2018-06-25T09:34:58.363Z,64.20
2018-06-25T09:37:26.544Z,61.40
2018-06-25T09:39:54.649Z,58.30
2018-06-25T09:42:22.763Z,58.60
2018-06-25T09:44:51.102Z,54.30
2018-06-25T09:47:19.176Z,53.50
2018-06-25T09:49:47.277Z,52.40
2018-06-25T09:52:23.670Z,51.40
2018-06-25T09:54:52.204Z,50.70
2018-06-25T09:57:20.405Z,47.70
2018-06-25T09:59:54.711Z,48.10
2018-06-25T10:02:22.856Z,49.10
2018-06-25T10:04:54.379Z,45.90
2018-06-25T10:07:22.780Z,43.60
2018-06-25T10:09:56.634Z,41.20
2018-06-25T10:12:24.798Z,39.90
2018-06-25T10:14:52.976Z,39.50
2018-06-25T10:17:24.735Z,42.60
2018-06-25T10:19:52.896Z,41.20
2018-06-25T10:22:24.324Z,44.60
2018-06-25T10:24:52.472Z,38.90
2018-06-25T10:27:20.646Z,39.50
2018-06-25T10:32:23.904Z,40.40
2018-06-25T10:34:52.226Z,37.40
2018-06-25T10:37:20.354Z,37.50
2018-06-25T10:39:48.472Z,38.30
2018-06-25T10:42:23.673Z,38.40
2018-06-25T10:44:55.663Z,42.00
2018-06-25T10:47:23.946Z,42.30
2018-06-25T10:49:52.173Z,42.50
2018-06-25T10:52:20.462Z,40.70
2018-06-25T10:54:49.193Z,36.50
2018-06-25T10:57:17.491Z,35.40
2018-06-25T10:59:45.713Z,34.90
2018-06-25T11:02:13.829Z,35.60
2018-06-25T11:04:46.072Z,38.30
2018-06-25T11:07:14.360Z,35.70
2018-06-25T11:09:42.446Z,34.50
2018-06-25T11:12:16.548Z,37.10
2018-06-25T11:14:45.007Z,32.90
2018-06-25T11:17:13.191Z,36.00
2018-06-25T11:19:41.318Z,38.60
2018-06-25T11:22:09.454Z,41.40
2018-06-25T11:24:37.586Z,41.60
2018-06-25T11:27:14.060Z,42.40
2018-06-25T11:29:42.233Z,44.00
2018-06-25T11:32:16.252Z,44.50
2018-06-25T11:34:44.475Z,47.20
2018-06-25T11:39:40.626Z,44.70
2018-06-25T11:42:08.891Z,44.90
2018-06-25T11:44:44.212Z,44.80
2018-06-25T11:47:12.524Z,46.80
2018-06-25T11:49:40.724Z,45.80
2018-06-25T11:52:08.905Z,46.30
2018-06-25T11:54:44.449Z,43.70
2018-06-25T12:00:06.546Z,43.30
2018-06-25T12:02:34.709Z,42.70
2018-06-25T12:05:02.920Z,43.00
2018-06-25T12:07:33.834Z,46.00
2018-06-25T12:10:02.062Z,45.30
2018-06-25T12:12:36.112Z,44.10
2018-06-25T12:15:13.730Z,44.50
2018-06-25T12:17:41.926Z,48.60
2018-06-25T12:20:10.111Z,50.50
2018-06-25T12:22:38.210Z,50.20
2018-06-25T12:25:14.008Z,51.20
2018-06-25T12:27:42.217Z,52.10
2018-06-25T12:30:10.611Z,49.00
2018-06-25T12:32:44.939Z,49.00
2018-06-25T12:35:16.878Z,49.80
2018-06-25T12:37:45.018Z,50.10
2018-06-25T12:40:13.150Z,47.60
2018-06-25T12:42:44.893Z,48.00
2018-06-25T12:45:14.899Z,46.80
2018-06-25T12:47:45.405Z,48.70
2018-06-25T12:50:13.530Z,47.20
2018-06-25T12:52:41.756Z,49.10
2018-06-25T12:55:09.851Z,45.70
2018-06-25T12:57:37.951Z,47.50
2018-06-25T13:00:06.058Z,47.80
2018-06-25T13:02:44.291Z,46.40
2018-06-25T13:05:12.516Z,48.90
2018-06-25T13:07:46.533Z,49.70
2018-06-25T13:10:14.730Z,50.60
2018-06-25T13:12:48.330Z,50.70
2018-06-25T13:15:26.373Z,51.70
2018-06-25T13:18:05.167Z,51.50
2018-06-25T13:20:33.412Z,50.40
2018-06-25T13:23:04.558Z,46.40
2018-06-25T13:25:32.896Z,46.30
2018-06-25T13:28:04.834Z,45.10
2018-06-25T13:30:32.952Z,43.70
2018-06-25T13:33:01.096Z,45.60
2018-06-25T13:35:29.255Z,45.50
2018-06-25T13:37:57.786Z,46.50
2018-06-25T13:40:33.828Z,45.80
2018-06-25T13:43:02.066Z,45.50
2018-06-25T13:45:30.306Z,44.80
2018-06-25T13:47:58.489Z,48.40
2018-06-25T13:50:26.612Z,48.00
2018-06-25T13:52:54.747Z,50.10
2018-06-25T13:55:22.886Z,48.60
2018-06-25T13:57:54.703Z,49.90
2018-06-25T14:00:25.200Z,49.00
2018-06-25T14:02:53.513Z,48.00
2018-06-25T14:05:21.606Z,50.20
2018-06-25T14:07:49.809Z,53.80
2018-06-25T14:10:17.994Z,55.40
2018-06-25T14:12:46.121Z,54.70
2018-06-25T14:15:24.520Z,53.60
2018-06-25T14:17:52.785Z,54.20
2018-06-25T14:20:20.954Z,52.10
2018-06-25T14:25:24.820Z,54.00
2018-06-25T14:28:00.372Z,53.50
2018-06-25T14:30:34.023Z,51.70
2018-06-25T14:33:03.650Z,51.50
2018-06-25T14:35:32.129Z,53.30
2018-06-25T14:38:00.287Z,52.50
2018-06-25T14:40:33.885Z,53.40
2018-06-25T14:43:01.958Z,54.60
2018-06-25T14:48:03.935Z,54.30
2018-06-25T14:50:35.195Z,54.00
2018-06-25T14:53:03.345Z,54.70
2018-06-25T14:55:31.525Z,56.10
2018-06-25T14:58:05.997Z,52.20
2018-06-25T15:00:35.162Z,53.50
2018-06-25T15:03:03.376Z,56.00
2018-06-25T15:05:34.875Z,56.20
2018-06-25T15:08:04.360Z,56.00
2018-06-25T15:10:32.551Z,55.40
2018-06-25T15:13:00.899Z,51.50
2018-06-25T15:15:30.729Z,49.60
2018-06-25T15:17:58.863Z,46.30
2018-06-25T15:20:27.101Z,49.50
2018-06-25T15:22:55.290Z,45.50
2018-06-25T15:25:25.153Z,46.80
2018-06-25T15:27:54.886Z,49.30
2018-06-25T15:30:24.818Z,48.30
2018-06-25T15:32:53.014Z,50.20
2018-06-25T15:35:21.270Z,53.70
2018-06-25T15:37:49.398Z,53.00
2018-06-25T15:40:17.537Z,54.30
2018-06-25T15:42:45.609Z,51.40
2018-06-25T15:45:14.554Z,50.90
2018-06-25T15:47:42.669Z,54.60
2018-06-25T15:50:10.765Z,57.80
2018-06-25T15:52:38.882Z,59.30
2018-06-25T15:55:14.532Z,60.20
2018-06-25T16:00:11.949Z,59.60
2018-06-25T16:02:40.074Z,58.00
2018-06-25T16:05:08.213Z,58.00
2018-06-25T16:07:36.456Z,58.10
2018-06-25T16:10:04.740Z,54.80
2018-06-25T16:12:36.172Z,54.50
2018-06-25T16:15:04.347Z,53.70
2018-06-25T16:17:34.449Z,51.90
2018-06-25T16:20:02.642Z,52.80
2018-06-25T16:22:36.341Z,52.70
2018-06-25T16:25:04.771Z,52.50
2018-06-25T16:27:32.862Z,53.60
2018-06-25T16:30:01.022Z,54.80
2018-06-25T16:32:29.702Z,55.60
2018-06-25T16:34:57.995Z,56.40
2018-06-25T16:37:34.261Z,57.50
2018-06-25T16:40:02.483Z,59.80
2018-06-25T16:42:34.391Z,63.20
2018-06-25T16:45:02.644Z,66.10
2018-06-25T16:47:30.823Z,68.90
2018-06-25T16:49:58.832Z,70.70
2018-06-25T16:52:33.882Z,72.20
2018-06-25T16:55:02.005Z,72.10
2018-06-25T16:57:30.098Z,71.80
2018-06-25T16:59:58.188Z,71.60
2018-06-25T17:02:34.017Z,71.40
2018-06-25T17:05:02.124Z,70.20
2018-06-25T17:07:30.200Z,71.70
2018-06-25T17:09:58.301Z,72.20
2018-06-25T17:12:26.420Z,71.00
2018-06-25T17:14:54.533Z,72.40
2018-06-25T17:17:25.681Z,72.90
2018-06-25T17:19:53.773Z,73.00
2018-06-25T17:22:25.573Z,73.40
2018-06-25T17:24:53.658Z,73.40
2018-06-25T17:27:21.770Z,72.70
2018-06-25T17:29:55.857Z,70.40
2018-06-25T17:32:25.230Z,70.60
2018-06-25T17:34:53.603Z,68.50
2018-06-25T17:37:22.266Z,69.10
2018-06-25T17:39:50.366Z,68.70
2018-06-25T17:42:18.829Z,70.70
2018-06-25T17:44:46.971Z,71.40
2018-06-25T17:47:25.488Z,73.40
2018-06-25T17:49:53.581Z,75.40
2018-06-25T17:52:24.915Z,76.50
2018-06-25T17:54:53.019Z,78.40
2018-06-25T18:00:12.702Z,79.90
2018-06-25T18:02:40.928Z,80.90
2018-06-25T18:05:15.395Z,82.70
2018-06-25T18:07:43.527Z,83.70
2018-06-25T18:10:15.438Z,84.60
2018-06-25T18:12:45.089Z,85.40
2018-06-25T18:15:13.195Z,85.10
2018-06-25T18:17:45.175Z,86.40
2018-06-25T18:20:14.804Z,86.70
2018-06-25T18:22:44.544Z,86.40
2018-06-25T18:25:12.674Z,87.10
2018-06-25T18:27:40.779Z,88.10
2018-06-25T18:32:36.855Z,89.20
2018-06-25T18:35:15.257Z,89.60
2018-06-25T18:37:43.350Z,89.90
2018-06-25T18:40:15.343Z,89.80
2018-06-25T18:42:43.454Z,89.90
2018-06-25T18:45:14.662Z,89.70
2018-06-25T18:47:42.821Z,90.30
2018-06-25T18:50:14.347Z,90.20
2018-06-25T18:52:42.651Z,90.50
2018-06-25T18:55:10.806Z,90.80
2018-06-25T18:57:44.536Z,90.80
2018-06-25T19:00:15.920Z,90.90
2018-06-25T19:02:44.016Z,91.30
2018-06-25T19:05:12.146Z,91.50
2018-06-25T19:07:40.271Z,91.70
2018-06-25T19:10:14.367Z,92.00
2018-06-25T19:12:42.502Z,92.50
2018-06-25T19:15:10.656Z,92.90
2018-06-25T19:17:38.743Z,93.50
2018-06-25T19:20:07.072Z,93.80
2018-06-25T19:22:35.215Z,94.50
2018-06-25T19:25:05.311Z,95.10
2018-06-25T19:27:33.455Z,95.60
2018-06-25T19:30:01.624Z,96.20
2018-06-25T19:32:29.737Z,96.60
2018-06-25T19:34:57.887Z,97.20
2018-06-25T19:37:34.394Z,97.60
2018-06-25T19:40:02.462Z,98.10
2018-06-25T19:42:30.659Z,98.50
2018-06-25T19:44:58.769Z,99.00
2018-06-25T19:47:34.335Z,99.20
2018-06-25T19:50:02.444Z,99.20
2018-06-25T19:55:04.053Z,99.70
2018-06-25T19:57:35.317Z,99.90
2018-06-25T20:00:03.574Z,99.90
2018-06-25T20:02:34.846Z,99.90
2018-06-25T20:05:04.868Z,99.90
2018-06-25T20:07:32.978Z,99.90
2018-06-25T20:10:06.687Z,99.90
2018-06-25T20:12:34.860Z,99.90
2018-06-25T20:15:04.717Z,99.90
2018-06-25T20:17:32.766Z,99.90
2018-06-25T20:20:06.414Z,99.90
2018-06-25T20:22:44.037Z,99.90
2018-06-25T20:25:15.211Z,99.90
2018-06-25T20:27:43.253Z,99.90
2018-06-25T20:30:14.793Z,99.90
2018-06-25T20:32:44.547Z,99.90
2018-06-25T20:35:12.632Z,99.90
2018-06-25T20:37:46.599Z,99.90
2018-06-25T20:40:25.126Z,99.90
2018-06-25T20:42:53.207Z,99.90
2018-06-25T20:45:21.382Z,99.90
2018-06-25T20:47:55.343Z,99.90
2018-06-25T20:50:24.500Z,99.90
2018-06-25T20:52:52.548Z,99.90
2018-06-25T20:55:26.571Z,99.90
2018-06-25T20:58:04.285Z,99.90
2018-06-25T21:00:32.442Z,99.90
2018-06-25T21:03:00.530Z,99.90
2018-06-25T21:05:34.390Z,99.90
2018-06-25T21:08:02.450Z,99.90
2018-06-25T21:10:36.708Z,99.90
2018-06-25T21:15:57.478Z,99.90
2018-06-25T21:18:25.690Z,99.90
2018-06-25T21:20:53.802Z,99.90
2018-06-25T21:23:25.708Z,99.90
2018-06-25T21:25:53.816Z,99.90
2018-06-25T21:28:25.718Z,99.90
2018-06-25T21:30:54.390Z,99.90
2018-06-25T21:33:26.199Z,99.90
2018-06-25T21:35:54.389Z,99.90
2018-06-25T21:38:22.403Z,99.90
2018-06-25T21:40:50.481Z,99.90
2018-06-25T21:43:18.551Z,99.90
2018-06-25T21:48:21.912Z,99.90
2018-06-25T21:50:49.991Z,99.90
2018-06-25T21:53:18.077Z,99.90
2018-06-25T21:55:54.314Z,99.90
2018-06-25T21:58:22.380Z,99.90
2018-06-25T22:00:51.860Z,99.90
2018-06-25T22:03:25.500Z,99.90
2018-06-25T22:05:53.532Z,99.90
2018-06-25T22:08:21.616Z,99.90
2018-06-25T22:10:49.688Z,99.90
2018-06-25T22:13:17.834Z,99.90
2018-06-25T22:15:45.869Z,99.90
2018-06-25T22:18:13.931Z,99.90
2018-06-25T22:20:41.990Z,99.90
2018-06-25T22:23:15.513Z,99.90
2018-06-25T22:25:44.752Z,99.90
2018-06-25T22:28:14.505Z,99.90
2018-06-25T22:30:42.555Z,99.90
2018-06-25T22:33:10.694Z,99.90
2018-06-25T22:35:44.592Z,99.90
2018-06-25T22:38:15.865Z,99.90
2018-06-25T22:40:44.657Z,99.90
2018-06-25T22:43:12.725Z,99.90
2018-06-25T22:45:40.798Z,99.90
2018-06-25T22:48:14.438Z,99.90
2018-06-25T22:50:42.498Z,99.90
2018-06-25T22:53:10.531Z,99.90
2018-06-25T22:55:38.577Z,99.90
2018-06-25T22:58:14.479Z,99.90
2018-06-25T23:00:42.514Z,99.90
2018-06-25T23:03:10.564Z,99.90
2018-06-25T23:05:44.908Z,99.90
2018-06-25T23:08:12.974Z,99.90
2018-06-25T23:10:44.997Z,99.90
2018-06-25T23:13:13.047Z,99.90
2018-06-25T23:15:44.510Z,99.90
2018-06-25T23:18:16.319Z,99.90
2018-06-25T23:20:54.572Z,99.90
2018-06-25T23:23:22.653Z,99.90
2018-06-25T23:25:50.745Z,99.90
2018-06-25T23:28:24.782Z,99.90
2018-06-25T23:30:52.862Z,99.90
2018-06-25T23:33:24.658Z,99.90
2018-06-25T23:35:54.434Z,99.90
2018-06-25T23:38:22.493Z,99.90
2018-06-25T23:40:50.777Z,99.90
2018-06-25T23:43:24.761Z,99.90
2018-06-25T23:45:52.830Z,99.90
2018-06-25T23:48:20.888Z,99.90
2018-06-25T23:50:49.039Z,99.90
2018-06-25T23:53:17.058Z,99.90
2018-06-25T23:55:55.136Z,99.90
2018-06-25T23:58:24.680Z,99.90
